sensor_id;sensor_type;location;lat;lon;timestamp;P1;durP1;ratioP1;P2;durP2;ratioP2
50231;SDS011;36118;56.468;84.952;2023-02-20T00:01:00;26.95;;;14.43;;
50231;SDS011;36118;56.468;84.952;2023-02-20T00:06:03;27.27;;;12.30;;
50231;SDS011;36118;56.468;84.952;2023-02-20T00:11:06;29.73;;;14.00;;
50231;SDS011;36118;56.468;84.952;2023-02-20T00:21:13;31.20;;;15.63;;
50231;SDS011;36118;56.468;84.952;2023-02-20T00:26:16;26.67;;;14.20;;
50231;SDS011;36118;56.468;84.952;2023-02-20T00:31:19;26.63;;;12.83;;
50231;SDS011;36118;56.468;84.952;2023-02-20T00:36:22;28.50;;;15.33;;
50231;SDS011;36118;56.468;84.952;2023-02-20T00:41:24;28.27;;;11.45;;
50231;SDS011;36118;56.468;84.952;2023-02-20T00:46:27;24.90;;;10.07;;
50231;SDS011;36118;56.468;84.952;2023-02-20T00:51:30;28.70;;;11.97;;
50231;SDS011;36118;56.468;84.952;2023-02-20T00:56:34;32.95;;;17.02;;
50231;SDS011;36118;56.468;84.952;2023-02-20T01:01:37;25.70;;;11.95;;
50231;SDS011;36118;56.468;84.952;2023-02-20T01:06:40;32.47;;;14.00;;
50231;SDS011;36118;56.468;84.952;2023-02-20T01:11:45;22.90;;;12.05;;
50231;SDS011;36118;56.468;84.952;2023-02-20T01:16:49;33.43;;;18.30;;
50231;SDS011;36118;56.468;84.952;2023-02-20T01:21:53;32.92;;;15.57;;
50231;SDS011;36118;56.468;84.952;2023-02-20T01:26:56;24.38;;;11.00;;
50231;SDS011;36118;56.468;84.952;2023-02-20T01:31:59;33.95;;;16.02;;
50231;SDS011;36118;56.468;84.952;2023-02-20T01:37:01;28.97;;;15.27;;
50231;SDS011;36118;56.468;84.952;2023-02-20T01:42:05;31.75;;;15.50;;
50231;SDS011;36118;56.468;84.952;2023-02-20T01:47:19;34.40;;;16.85;;
50231;SDS011;36118;56.468;84.952;2023-02-20T01:52:27;32.92;;;15.77;;
50231;SDS011;36118;56.468;84.952;2023-02-20T01:57:32;29.00;;;11.75;;
50231;SDS011;36118;56.468;84.952;2023-02-20T02:02:38;31.15;;;14.25;;
50231;SDS011;36118;56.468;84.952;2023-02-20T02:07:43;24.92;;;11.38;;
50231;SDS011;36118;56.468;84.952;2023-02-20T02:12:47;28.27;;;10.95;;
50231;SDS011;36118;56.468;84.952;2023-02-20T02:44:20;32.22;;;14.07;;
50231;SDS011;36118;56.468;84.952;2023-02-20T02:49:54;32.10;;;14.88;;
50231;SDS011;36118;56.468;84.952;2023-02-20T02:55:01;31.50;;;15.60;;
50231;SDS011;36118;56.468;84.952;2023-02-20T03:00:09;26.13;;;11.85;;
50231;SDS011;36118;56.468;84.952;2023-02-20T03:05:34;29.80;;;12.23;;
50231;SDS011;36118;56.468;84.952;2023-02-20T03:10:47;29.80;;;13.10;;
50231;SDS011;36118;56.468;84.952;2023-02-20T03:15:57;28.13;;;12.75;;
50231;SDS011;36118;56.468;84.952;2023-02-20T03:26:07;28.25;;;13.27;;
50231;SDS011;36118;56.468;84.952;2023-02-20T03:31:45;28.75;;;12.65;;
50231;SDS011;36118;56.468;84.952;2023-02-20T03:36:52;29.73;;;14.90;;
50231;SDS011;36118;56.468;84.952;2023-02-20T03:42:18;30.17;;;16.00;;
50231;SDS011;36118;56.468;84.952;2023-02-20T03:47:51;29.65;;;12.27;;
50231;SDS011;36118;56.468;84.952;2023-02-20T03:52:56;36.28;;;17.25;;
50231;SDS011;36118;56.468;84.952;2023-02-20T03:58:00;34.35;;;18.00;;
50231;SDS011;36118;56.468;84.952;2023-02-20T04:03:09;34.75;;;17.52;;
50231;SDS011;36118;56.468;84.952;2023-02-20T04:13:53;33.88;;;17.52;;
50231;SDS011;36118;56.468;84.952;2023-02-20T04:18:57;32.58;;;12.80;;
50231;SDS011;36118;56.468;84.952;2023-02-20T04:24:07;29.00;;;13.20;;
50231;SDS011;36118;56.468;84.952;2023-02-20T04:29:14;28.13;;;14.15;;
50231;SDS011;36118;56.468;84.952;2023-02-20T04:34:18;27.03;;;12.20;;
50231;SDS011;36118;56.468;84.952;2023-02-20T04:39:26;35.67;;;16.80;;
50231;SDS011;36118;56.468;84.952;2023-02-20T04:44:29;29.95;;;14.95;;
50231;SDS011;36118;56.468;84.952;2023-02-20T04:49:33;34.20;;;14.67;;
50231;SDS011;36118;56.468;84.952;2023-02-20T04:54:46;33.47;;;16.67;;
50231;SDS011;36118;56.468;84.952;2023-02-20T04:59:50;33.95;;;18.30;;
50231;SDS011;36118;56.468;84.952;2023-02-20T05:04:53;30.20;;;16.08;;
50231;SDS011;36118;56.468;84.952;2023-02-20T05:09:59;33.15;;;17.10;;
50231;SDS011;36118;56.468;84.952;2023-02-20T05:15:03;35.30;;;15.43;;
50231;SDS011;36118;56.468;84.952;2023-02-20T05:20:06;29.27;;;14.35;;
50231;SDS011;36118;56.468;84.952;2023-02-20T05:25:09;39.60;;;19.35;;
50231;SDS011;36118;56.468;84.952;2023-02-20T05:30:13;33.33;;;17.17;;
50231;SDS011;36118;56.468;84.952;2023-02-20T05:35:15;29.67;;;14.63;;
50231;SDS011;36118;56.468;84.952;2023-02-20T05:40:18;34.83;;;16.73;;
50231;SDS011;36118;56.468;84.952;2023-02-20T05:45:21;34.05;;;16.88;;
50231;SDS011;36118;56.468;84.952;2023-02-20T05:50:24;32.10;;;16.10;;
50231;SDS011;36118;56.468;84.952;2023-02-20T05:55:26;32.20;;;14.65;;
50231;SDS011;36118;56.468;84.952;2023-02-20T06:00:29;28.98;;;12.98;;
50231;SDS011;36118;56.468;84.952;2023-02-20T06:05:32;32.08;;;18.52;;
50231;SDS011;36118;56.468;84.952;2023-02-20T06:10:35;27.60;;;13.40;;
50231;SDS011;36118;56.468;84.952;2023-02-20T06:15:37;30.98;;;13.80;;
50231;SDS011;36118;56.468;84.952;2023-02-20T06:20:40;29.63;;;15.32;;
50231;SDS011;36118;56.468;84.952;2023-02-20T06:25:43;29.75;;;11.15;;
50231;SDS011;36118;56.468;84.952;2023-02-20T06:30:46;30.00;;;15.15;;
50231;SDS011;36118;56.468;84.952;2023-02-20T06:35:48;33.60;;;15.73;;
50231;SDS011;36118;56.468;84.952;2023-02-20T06:40:51;34.30;;;17.60;;
50231;SDS011;36118;56.468;84.952;2023-02-20T06:45:54;30.55;;;14.90;;
50231;SDS011;36118;56.468;84.952;2023-02-20T06:50:57;31.38;;;13.98;;
50231;SDS011;36118;56.468;84.952;2023-02-20T06:56:00;31.17;;;15.70;;
50231;SDS011;36118;56.468;84.952;2023-02-20T07:01:03;29.83;;;13.50;;
50231;SDS011;36118;56.468;84.952;2023-02-20T07:06:06;31.20;;;13.57;;
50231;SDS011;36118;56.468;84.952;2023-02-20T07:11:09;35.03;;;15.55;;
50231;SDS011;36118;56.468;84.952;2023-02-20T07:16:12;30.33;;;14.37;;
50231;SDS011;36118;56.468;84.952;2023-02-20T07:21:16;31.80;;;15.83;;
50231;SDS011;36118;56.468;84.952;2023-02-20T07:26:23;36.08;;;15.50;;
50231;SDS011;36118;56.468;84.952;2023-02-20T07:31:27;32.78;;;15.63;;
50231;SDS011;36118;56.468;84.952;2023-02-20T07:36:30;36.72;;;15.43;;
50231;SDS011;36118;56.468;84.952;2023-02-20T07:41:33;36.42;;;16.05;;
50231;SDS011;36118;56.468;84.952;2023-02-20T07:46:38;28.67;;;13.25;;
50231;SDS011;36118;56.468;84.952;2023-02-20T07:51:41;36.42;;;17.42;;
50231;SDS011;36118;56.468;84.952;2023-02-20T07:56:44;33.45;;;15.48;;
50231;SDS011;36118;56.468;84.952;2023-02-20T08:01:47;38.17;;;16.45;;
50231;SDS011;36118;56.468;84.952;2023-02-20T08:06:50;37.33;;;14.32;;
50231;SDS011;36118;56.468;84.952;2023-02-20T08:11:52;33.13;;;14.13;;
50231;SDS011;36118;56.468;84.952;2023-02-20T08:16:55;29.70;;;11.98;;
50231;SDS011;36118;56.468;84.952;2023-02-20T08:21:58;30.08;;;13.38;;
50231;SDS011;36118;56.468;84.952;2023-02-20T08:27:00;29.88;;;15.70;;
50231;SDS011;36118;56.468;84.952;2023-02-20T08:32:04;39.72;;;17.38;;
50231;SDS011;36118;56.468;84.952;2023-02-20T08:37:07;31.88;;;17.83;;
50231;SDS011;36118;56.468;84.952;2023-02-20T08:42:13;41.13;;;17.27;;
50231;SDS011;36118;56.468;84.952;2023-02-20T08:47:19;35.33;;;16.50;;
50231;SDS011;36118;56.468;84.952;2023-02-20T08:52:22;35.63;;;16.25;;
50231;SDS011;36118;56.468;84.952;2023-02-20T08:57:25;29.48;;;13.45;;
50231;SDS011;36118;56.468;84.952;2023-02-20T09:02:28;32.10;;;14.75;;
50231;SDS011;36118;56.468;84.952;2023-02-20T09:07:31;26.63;;;14.23;;
50231;SDS011;36118;56.468;84.952;2023-02-20T09:12:34;33.00;;;16.33;;
50231;SDS011;36118;56.468;84.952;2023-02-20T09:17:37;30.02;;;15.65;;
50231;SDS011;36118;56.468;84.952;2023-02-20T09:22:41;29.55;;;15.07;;
50231;SDS011;36118;56.468;84.952;2023-02-20T09:27:44;25.73;;;12.90;;
50231;SDS011;36118;56.468;84.952;2023-02-20T09:32:47;28.98;;;13.82;;
50231;SDS011;36118;56.468;84.952;2023-02-20T09:37:51;33.10;;;15.35;;
50231;SDS011;36118;56.468;84.952;2023-02-20T09:42:58;33.50;;;15.30;;
50231;SDS011;36118;56.468;84.952;2023-02-20T09:48:11;30.30;;;13.35;;
50231;SDS011;36118;56.468;84.952;2023-02-20T09:53:29;25.55;;;12.68;;
50231;SDS011;36118;56.468;84.952;2023-02-20T09:59:06;29.73;;;13.65;;
50231;SDS011;36118;56.468;84.952;2023-02-20T10:04:14;27.13;;;13.77;;
50231;SDS011;36118;56.468;84.952;2023-02-20T10:09:19;33.38;;;16.92;;
50231;SDS011;36118;56.468;84.952;2023-02-20T10:30:09;34.20;;;15.65;;
50231;SDS011;36118;56.468;84.952;2023-02-20T10:35:39;26.90;;;12.70;;
50231;SDS011;36118;56.468;84.952;2023-02-20T10:46:13;27.15;;;13.23;;
50231;SDS011;36118;56.468;84.952;2023-02-20T10:51:24;31.13;;;14.60;;
50231;SDS011;36118;56.468;84.952;2023-02-20T11:01:54;34.33;;;15.10;;
50231;SDS011;36118;56.468;84.952;2023-02-20T11:07:02;34.88;;;14.68;;
50231;SDS011;36118;56.468;84.952;2023-02-20T11:12:18;28.80;;;15.93;;
50231;SDS011;36118;56.468;84.952;2023-02-20T11:17:26;31.20;;;15.32;;
50231;SDS011;36118;56.468;84.952;2023-02-20T11:22:47;29.20;;;15.50;;
50231;SDS011;36118;56.468;84.952;2023-02-20T11:27:51;30.42;;;13.73;;
50231;SDS011;36118;56.468;84.952;2023-02-20T11:49:22;29.88;;;14.23;;
50231;SDS011;36118;56.468;84.952;2023-02-20T11:54:27;30.75;;;14.27;;
50231;SDS011;36118;56.468;84.952;2023-02-20T11:59:35;39.88;;;14.77;;
50231;SDS011;36118;56.468;84.952;2023-02-20T12:10:12;32.65;;;14.50;;
50231;SDS011;36118;56.468;84.952;2023-02-20T12:15:21;36.67;;;16.38;;
50231;SDS011;36118;56.468;84.952;2023-02-20T12:20:28;32.30;;;14.43;;
50231;SDS011;36118;56.468;84.952;2023-02-20T12:47:01;29.60;;;13.10;;
50231;SDS011;36118;56.468;84.952;2023-02-20T12:52:34;26.35;;;13.30;;
50231;SDS011;36118;56.468;84.952;2023-02-20T13:08:34;31.77;;;14.05;;
50231;SDS011;36118;56.468;84.952;2023-02-20T13:29:27;27.95;;;11.77;;
50231;SDS011;36118;56.468;84.952;2023-02-20T13:34:35;23.67;;;9.63;;
50231;SDS011;36118;56.468;84.952;2023-02-20T13:39:39;25.65;;;11.77;;
50231;SDS011;36118;56.468;84.952;2023-02-20T13:54:54;22.87;;;11.60;;
50231;SDS011;36118;56.468;84.952;2023-02-20T13:59:58;26.13;;;10.70;;
50231;SDS011;36118;56.468;84.952;2023-02-20T14:05:05;30.75;;;11.90;;
50231;SDS011;36118;56.468;84.952;2023-02-20T14:15:32;27.55;;;12.45;;
50231;SDS011;36118;56.468;84.952;2023-02-20T14:20:44;35.28;;;14.02;;
50231;SDS011;36118;56.468;84.952;2023-02-20T14:26:00;28.17;;;12.52;;
50231;SDS011;36118;56.468;84.952;2023-02-20T14:31:26;28.27;;;13.80;;
50231;SDS011;36118;56.468;84.952;2023-02-20T14:41:50;31.88;;;15.52;;
50231;SDS011;36118;56.468;84.952;2023-02-20T14:47:07;34.10;;;14.77;;
50231;SDS011;36118;56.468;84.952;2023-02-20T14:52:17;34.97;;;15.63;;
50231;SDS011;36118;56.468;84.952;2023-02-20T14:57:22;31.98;;;14.30;;
50231;SDS011;36118;56.468;84.952;2023-02-20T15:02:25;35.58;;;14.15;;
50231;SDS011;36118;56.468;84.952;2023-02-20T15:07:40;28.55;;;13.05;;
50231;SDS011;36118;56.468;84.952;2023-02-20T15:12:43;34.77;;;14.87;;
50231;SDS011;36118;56.468;84.952;2023-02-20T15:17:46;39.05;;;16.77;;
50231;SDS011;36118;56.468;84.952;2023-02-20T15:22:49;46.08;;;18.15;;
50231;SDS011;36118;56.468;84.952;2023-02-20T15:33:37;54.15;;;24.20;;
50231;SDS011;36118;56.468;84.952;2023-02-20T15:38:42;54.00;;;24.45;;
50231;SDS011;36118;56.468;84.952;2023-02-20T15:43:45;53.03;;;21.45;;
50231;SDS011;36118;56.468;84.952;2023-02-20T15:48:52;51.97;;;23.08;;
50231;SDS011;36118;56.468;84.952;2023-02-20T15:53:58;52.58;;;23.33;;
50231;SDS011;36118;56.468;84.952;2023-02-20T15:59:02;60.58;;;25.77;;
50231;SDS011;36118;56.468;84.952;2023-02-20T16:04:09;52.72;;;21.73;;
50231;SDS011;36118;56.468;84.952;2023-02-20T16:09:16;52.67;;;22.75;;
50231;SDS011;36118;56.468;84.952;2023-02-20T16:14:19;57.60;;;24.67;;
50231;SDS011;36118;56.468;84.952;2023-02-20T16:19:22;46.03;;;20.05;;
50231;SDS011;36118;56.468;84.952;2023-02-20T16:24:41;52.38;;;21.08;;
50231;SDS011;36118;56.468;84.952;2023-02-20T16:29:46;42.80;;;18.52;;
50231;SDS011;36118;56.468;84.952;2023-02-20T16:34:49;47.63;;;18.98;;
50231;SDS011;36118;56.468;84.952;2023-02-20T16:39:52;41.17;;;15.63;;
50231;SDS011;36118;56.468;84.952;2023-02-20T16:44:55;40.05;;;14.75;;
50231;SDS011;36118;56.468;84.952;2023-02-20T16:50:00;38.47;;;16.83;;
50231;SDS011;36118;56.468;84.952;2023-02-20T16:55:13;39.17;;;14.35;;
50231;SDS011;36118;56.468;84.952;2023-02-20T17:00:21;39.28;;;14.80;;
50231;SDS011;36118;56.468;84.952;2023-02-20T17:05:30;36.53;;;14.80;;
50231;SDS011;36118;56.468;84.952;2023-02-20T17:10:34;39.28;;;16.05;;
50231;SDS011;36118;56.468;84.952;2023-02-20T17:15:36;38.42;;;16.45;;
50231;SDS011;36118;56.468;84.952;2023-02-20T17:20:39;33.72;;;15.63;;
50231;SDS011;36118;56.468;84.952;2023-02-20T17:25:42;31.83;;;13.68;;
50231;SDS011;36118;56.468;84.952;2023-02-20T17:30:44;34.65;;;12.85;;
50231;SDS011;36118;56.468;84.952;2023-02-20T17:35:50;40.25;;;15.95;;
50231;SDS011;36118;56.468;84.952;2023-02-20T17:40:52;37.88;;;15.50;;
50231;SDS011;36118;56.468;84.952;2023-02-20T17:45:55;41.35;;;15.93;;
50231;SDS011;36118;56.468;84.952;2023-02-20T17:50:58;41.50;;;15.40;;
50231;SDS011;36118;56.468;84.952;2023-02-20T17:56:01;41.95;;;15.85;;
50231;SDS011;36118;56.468;84.952;2023-02-20T18:01:04;37.13;;;16.70;;
50231;SDS011;36118;56.468;84.952;2023-02-20T18:06:07;42.47;;;17.55;;
50231;SDS011;36118;56.468;84.952;2023-02-20T18:11:10;48.35;;;19.40;;
50231;SDS011;36118;56.468;84.952;2023-02-20T18:16:13;56.28;;;22.55;;
50231;SDS011;36118;56.468;84.952;2023-02-20T18:21:17;59.30;;;24.83;;
50231;SDS011;36118;56.468;84.952;2023-02-20T18:26:20;53.13;;;22.17;;
50231;SDS011;36118;56.468;84.952;2023-02-20T18:31:24;41.22;;;17.85;;
50231;SDS011;36118;56.468;84.952;2023-02-20T18:36:26;58.05;;;23.48;;
50231;SDS011;36118;56.468;84.952;2023-02-20T18:41:30;51.40;;;22.83;;
50231;SDS011;36118;56.468;84.952;2023-02-20T18:46:35;47.67;;;18.87;;
50231;SDS011;36118;56.468;84.952;2023-02-20T18:51:41;57.58;;;23.15;;
50231;SDS011;36118;56.468;84.952;2023-02-20T19:01:51;59.15;;;23.33;;
50231;SDS011;36118;56.468;84.952;2023-02-20T19:06:57;58.15;;;23.98;;
50231;SDS011;36118;56.468;84.952;2023-02-20T19:12:00;57.90;;;25.17;;
50231;SDS011;36118;56.468;84.952;2023-02-20T19:17:04;58.15;;;23.17;;
50231;SDS011;36118;56.468;84.952;2023-02-20T19:27:11;49.70;;;21.38;;
50231;SDS011;36118;56.468;84.952;2023-02-20T19:32:14;52.97;;;21.92;;
50231;SDS011;36118;56.468;84.952;2023-02-20T19:37:16;49.83;;;21.35;;
50231;SDS011;36118;56.468;84.952;2023-02-20T19:42:19;59.28;;;23.25;;
50231;SDS011;36118;56.468;84.952;2023-02-20T19:47:23;42.50;;;18.13;;
50231;SDS011;36118;56.468;84.952;2023-02-20T19:52:26;51.95;;;21.27;;
50231;SDS011;36118;56.468;84.952;2023-02-20T19:57:28;51.65;;;20.95;;
50231;SDS011;36118;56.468;84.952;2023-02-20T20:02:31;43.17;;;18.52;;
50231;SDS011;36118;56.468;84.952;2023-02-20T20:07:34;43.42;;;19.95;;
50231;SDS011;36118;56.468;84.952;2023-02-20T20:12:37;51.63;;;21.08;;
50231;SDS011;36118;56.468;84.952;2023-02-20T20:17:53;51.38;;;19.85;;
50231;SDS011;36118;56.468;84.952;2023-02-20T20:22:58;46.90;;;21.17;;
50231;SDS011;36118;56.468;84.952;2023-02-20T20:28:06;49.85;;;18.70;;
50231;SDS011;36118;56.468;84.952;2023-02-20T20:33:10;46.80;;;19.10;;
50231;SDS011;36118;56.468;84.952;2023-02-20T20:38:13;50.78;;;20.88;;
50231;SDS011;36118;56.468;84.952;2023-02-20T20:43:16;46.28;;;19.55;;
50231;SDS011;36118;56.468;84.952;2023-02-20T20:48:18;51.05;;;21.58;;
50231;SDS011;36118;56.468;84.952;2023-02-20T20:53:21;48.97;;;20.67;;
50231;SDS011;36118;56.468;84.952;2023-02-20T20:58:24;45.15;;;19.17;;
50231;SDS011;36118;56.468;84.952;2023-02-20T21:03:27;50.05;;;20.92;;
50231;SDS011;36118;56.468;84.952;2023-02-20T21:08:30;48.10;;;19.45;;
50231;SDS011;36118;56.468;84.952;2023-02-20T21:13:34;44.95;;;19.30;;
50231;SDS011;36118;56.468;84.952;2023-02-20T21:18:37;48.47;;;19.98;;
50231;SDS011;36118;56.468;84.952;2023-02-20T21:23:40;45.90;;;19.05;;
50231;SDS011;36118;56.468;84.952;2023-02-20T21:28:46;47.63;;;21.95;;
50231;SDS011;36118;56.468;84.952;2023-02-20T21:33:50;54.58;;;20.00;;
50231;SDS011;36118;56.468;84.952;2023-02-20T21:38:53;47.03;;;16.85;;
50231;SDS011;36118;56.468;84.952;2023-02-20T21:43:56;48.42;;;21.00;;
50231;SDS011;36118;56.468;84.952;2023-02-20T21:49:18;51.28;;;21.15;;
50231;SDS011;36118;56.468;84.952;2023-02-20T21:54:23;42.70;;;18.83;;
50231;SDS011;36118;56.468;84.952;2023-02-20T21:59:28;55.35;;;23.10;;
50231;SDS011;36118;56.468;84.952;2023-02-20T22:04:30;46.60;;;19.83;;
50231;SDS011;36118;56.468;84.952;2023-02-20T22:09:33;48.33;;;20.50;;
50231;SDS011;36118;56.468;84.952;2023-02-20T22:14:55;52.00;;;21.23;;
50231;SDS011;36118;56.468;84.952;2023-02-20T22:20:17;47.15;;;20.08;;
50231;SDS011;36118;56.468;84.952;2023-02-20T22:25:38;47.33;;;19.38;;
50231;SDS011;36118;56.468;84.952;2023-02-20T22:31:00;50.17;;;20.00;;
50231;SDS011;36118;56.468;84.952;2023-02-20T22:36:21;45.63;;;18.25;;
50231;SDS011;36118;56.468;84.952;2023-02-20T22:41:43;47.85;;;19.27;;
50231;SDS011;36118;56.468;84.952;2023-02-20T22:47:05;44.97;;;18.77;;
50231;SDS011;36118;56.468;84.952;2023-02-20T22:52:26;45.70;;;19.95;;
50231;SDS011;36118;56.468;84.952;2023-02-20T22:57:48;51.45;;;19.98;;
50231;SDS011;36118;56.468;84.952;2023-02-20T23:03:09;51.92;;;22.90;;
50231;SDS011;36118;56.468;84.952;2023-02-20T23:08:30;45.80;;;19.35;;
50231;SDS011;36118;56.468;84.952;2023-02-20T23:13:52;50.28;;;20.98;;
50231;SDS011;36118;56.468;84.952;2023-02-20T23:19:13;52.80;;;23.23;;
50231;SDS011;36118;56.468;84.952;2023-02-20T23:24:34;51.47;;;22.00;;
50231;SDS011;36118;56.468;84.952;2023-02-20T23:29:55;53.28;;;22.67;;
50231;SDS011;36118;56.468;84.952;2023-02-20T23:35:17;54.53;;;24.70;;
50231;SDS011;36118;56.468;84.952;2023-02-20T23:40:38;48.05;;;20.98;;
50231;SDS011;36118;56.468;84.952;2023-02-20T23:45:59;51.40;;;23.35;;
50231;SDS011;36118;56.468;84.952;2023-02-20T23:51:21;52.15;;;20.05;;
50231;SDS011;36118;56.468;84.952;2023-02-20T23:56:42;66.72;;;27.10;;
